sensor_id;sensor_type;location;lat;lon;timestamp;P1;durP1;ratioP1;P2;durP2;ratioP2
8466;SDS011;4270;48.148;11.648;2023-07-31T00:02:15;3.10;;;2.17;;
8466;SDS011;4270;48.148;11.648;2023-07-31T00:04:41;2.30;;;1.77;;
8466;SDS011;4270;48.148;11.648;2023-07-31T00:07:06;4.70;;;2.27;;
8466;SDS011;4270;48.148;11.648;2023-07-31T00:09:32;4.53;;;2.37;;
8466;SDS011;4270;48.148;11.648;2023-07-31T00:11:57;3.00;;;2.00;;
8466;SDS011;4270;48.148;11.648;2023-07-31T00:14:22;4.27;;;2.10;;
8466;SDS011;4270;48.148;11.648;2023-07-31T00:16:47;6.80;;;2.27;;
8466;SDS011;4270;48.148;11.648;2023-07-31T00:19:13;4.60;;;2.40;;
8466;SDS011;4270;48.148;11.648;2023-07-31T00:21:38;3.40;;;2.30;;
8466;SDS011;4270;48.148;11.648;2023-07-31T00:24:03;7.70;;;2.63;;
8466;SDS011;4270;48.148;11.648;2023-07-31T00:26:28;3.43;;;2.37;;
8466;SDS011;4270;48.148;11.648;2023-07-31T00:28:53;5.37;;;2.70;;
8466;SDS011;4270;48.148;11.648;2023-07-31T00:31:19;4.27;;;2.60;;
8466;SDS011;4270;48.148;11.648;2023-07-31T00:33:44;4.10;;;2.77;;
8466;SDS011;4270;48.148;11.648;2023-07-31T00:36:09;3.00;;;2.20;;
8466;SDS011;4270;48.148;11.648;2023-07-31T00:38:34;4.43;;;2.27;;
8466;SDS011;4270;48.148;11.648;2023-07-31T00:40:59;3.07;;;2.43;;
8466;SDS011;4270;48.148;11.648;2023-07-31T00:43:24;6.07;;;3.13;;
8466;SDS011;4270;48.148;11.648;2023-07-31T00:45:50;5.13;;;2.23;;
8466;SDS011;4270;48.148;11.648;2023-07-31T00:48:15;4.10;;;2.20;;
8466;SDS011;4270;48.148;11.648;2023-07-31T00:50:40;5.13;;;2.20;;
8466;SDS011;4270;48.148;11.648;2023-07-31T00:53:06;3.43;;;2.20;;
8466;SDS011;4270;48.148;11.648;2023-07-31T00:55:31;2.80;;;2.10;;
8466;SDS011;4270;48.148;11.648;2023-07-31T00:57:56;5.87;;;2.60;;
8466;SDS011;4270;48.148;11.648;2023-07-31T01:00:22;4.03;;;2.20;;
8466;SDS011;4270;48.148;11.648;2023-07-31T01:02:47;4.60;;;2.00;;
8466;SDS011;4270;48.148;11.648;2023-07-31T01:05:13;2.60;;;2.30;;
8466;SDS011;4270;48.148;11.648;2023-07-31T01:07:49;9.53;;;2.37;;
8466;SDS011;4270;48.148;11.648;2023-07-31T01:10:20;3.10;;;2.13;;
8466;SDS011;4270;48.148;11.648;2023-07-31T01:12:46;4.33;;;2.20;;
8466;SDS011;4270;48.148;11.648;2023-07-31T01:15:13;3.63;;;2.30;;
8466;SDS011;4270;48.148;11.648;2023-07-31T01:17:40;4.07;;;1.80;;
8466;SDS011;4270;48.148;11.648;2023-07-31T01:20:08;2.37;;;1.73;;
8466;SDS011;4270;48.148;11.648;2023-07-31T01:25:26;5.07;;;2.33;;
8466;SDS011;4270;48.148;11.648;2023-07-31T01:28:02;4.70;;;2.13;;
8466;SDS011;4270;48.148;11.648;2023-07-31T01:30:31;4.53;;;2.00;;
8466;SDS011;4270;48.148;11.648;2023-07-31T01:32:58;2.13;;;1.80;;
8466;SDS011;4270;48.148;11.648;2023-07-31T01:35:24;4.17;;;2.33;;
8466;SDS011;4270;48.148;11.648;2023-07-31T01:37:52;2.50;;;2.30;;
8466;SDS011;4270;48.148;11.648;2023-07-31T01:40:17;3.67;;;2.20;;
8466;SDS011;4270;48.148;11.648;2023-07-31T01:42:42;3.67;;;1.83;;
8466;SDS011;4270;48.148;11.648;2023-07-31T01:45:07;2.53;;;2.10;;
8466;SDS011;4270;48.148;11.648;2023-07-31T01:47:33;2.20;;;1.73;;
8466;SDS011;4270;48.148;11.648;2023-07-31T01:49:58;3.30;;;2.47;;
8466;SDS011;4270;48.148;11.648;2023-07-31T01:52:23;3.87;;;2.07;;
8466;SDS011;4270;48.148;11.648;2023-07-31T01:54:48;2.73;;;2.17;;
8466;SDS011;4270;48.148;11.648;2023-07-31T01:57:13;2.57;;;2.10;;
8466;SDS011;4270;48.148;11.648;2023-07-31T01:59:38;4.10;;;2.20;;
8466;SDS011;4270;48.148;11.648;2023-07-31T02:02:04;3.00;;;2.50;;
8466;SDS011;4270;48.148;11.648;2023-07-31T02:04:29;4.33;;;2.80;;
8466;SDS011;4270;48.148;11.648;2023-07-31T02:06:54;2.80;;;2.37;;
8466;SDS011;4270;48.148;11.648;2023-07-31T02:09:19;5.93;;;2.20;;
8466;SDS011;4270;48.148;11.648;2023-07-31T02:11:45;3.70;;;2.40;;
8466;SDS011;4270;48.148;11.648;2023-07-31T02:14:10;2.80;;;2.30;;
8466;SDS011;4270;48.148;11.648;2023-07-31T02:16:35;3.40;;;2.23;;
8466;SDS011;4270;48.148;11.648;2023-07-31T02:19:00;5.30;;;2.50;;
8466;SDS011;4270;48.148;11.648;2023-07-31T02:21:25;4.10;;;2.33;;
8466;SDS011;4270;48.148;11.648;2023-07-31T02:23:50;2.97;;;2.00;;
8466;SDS011;4270;48.148;11.648;2023-07-31T02:26:15;3.37;;;2.50;;
8466;SDS011;4270;48.148;11.648;2023-07-31T02:28:41;4.60;;;3.23;;
8466;SDS011;4270;48.148;11.648;2023-07-31T02:31:08;3.80;;;2.20;;
8466;SDS011;4270;48.148;11.648;2023-07-31T02:33:33;3.80;;;2.20;;
8466;SDS011;4270;48.148;11.648;2023-07-31T02:35:58;2.10;;;1.90;;
8466;SDS011;4270;48.148;11.648;2023-07-31T02:38:23;5.43;;;2.20;;
8466;SDS011;4270;48.148;11.648;2023-07-31T02:40:48;4.70;;;2.07;;
8466;SDS011;4270;48.148;11.648;2023-07-31T02:43:14;5.50;;;2.90;;
8466;SDS011;4270;48.148;11.648;2023-07-31T02:45:39;4.20;;;2.60;;
8466;SDS011;4270;48.148;11.648;2023-07-31T02:48:04;3.40;;;2.47;;
8466;SDS011;4270;48.148;11.648;2023-07-31T02:50:29;3.53;;;2.20;;
8466;SDS011;4270;48.148;11.648;2023-07-31T02:52:55;2.23;;;2.03;;
8466;SDS011;4270;48.148;11.648;2023-07-31T02:55:20;2.73;;;2.03;;
8466;SDS011;4270;48.148;11.648;2023-07-31T02:57:45;3.10;;;2.73;;
8466;SDS011;4270;48.148;11.648;2023-07-31T03:00:10;4.23;;;2.47;;
8466;SDS011;4270;48.148;11.648;2023-07-31T03:02:35;4.77;;;2.77;;
8466;SDS011;4270;48.148;11.648;2023-07-31T03:05:01;7.43;;;2.73;;
8466;SDS011;4270;48.148;11.648;2023-07-31T03:07:26;4.30;;;2.50;;
8466;SDS011;4270;48.148;11.648;2023-07-31T03:09:51;2.30;;;2.10;;
8466;SDS011;4270;48.148;11.648;2023-07-31T03:12:16;4.00;;;2.67;;
8466;SDS011;4270;48.148;11.648;2023-07-31T03:14:41;3.90;;;2.80;;
8466;SDS011;4270;48.148;11.648;2023-07-31T03:17:06;3.70;;;2.87;;
8466;SDS011;4270;48.148;11.648;2023-07-31T03:19:32;3.90;;;2.17;;
8466;SDS011;4270;48.148;11.648;2023-07-31T03:21:57;4.17;;;2.30;;
8466;SDS011;4270;48.148;11.648;2023-07-31T03:24:22;9.63;;;2.80;;
8466;SDS011;4270;48.148;11.648;2023-07-31T03:26:48;5.23;;;2.27;;
8466;SDS011;4270;48.148;11.648;2023-07-31T03:29:13;4.07;;;2.67;;
8466;SDS011;4270;48.148;11.648;2023-07-31T03:31:38;3.10;;;2.10;;
8466;SDS011;4270;48.148;11.648;2023-07-31T03:34:03;4.57;;;3.33;;
8466;SDS011;4270;48.148;11.648;2023-07-31T03:36:28;3.87;;;2.67;;
8466;SDS011;4270;48.148;11.648;2023-07-31T03:38:53;2.27;;;2.00;;
8466;SDS011;4270;48.148;11.648;2023-07-31T03:41:19;3.53;;;2.50;;
8466;SDS011;4270;48.148;11.648;2023-07-31T03:43:45;3.40;;;2.53;;
8466;SDS011;4270;48.148;11.648;2023-07-31T03:46:11;2.70;;;2.50;;
8466;SDS011;4270;48.148;11.648;2023-07-31T03:48:36;3.53;;;3.20;;
8466;SDS011;4270;48.148;11.648;2023-07-31T03:51:01;3.23;;;2.40;;
8466;SDS011;4270;48.148;11.648;2023-07-31T03:53:26;2.97;;;2.67;;
8466;SDS011;4270;48.148;11.648;2023-07-31T03:55:52;3.40;;;2.97;;
8466;SDS011;4270;48.148;11.648;2023-07-31T03:58:17;2.07;;;1.93;;
8466;SDS011;4270;48.148;11.648;2023-07-31T04:00:42;4.23;;;2.90;;
8466;SDS011;4270;48.148;11.648;2023-07-31T04:03:07;4.33;;;3.10;;
8466;SDS011;4270;48.148;11.648;2023-07-31T04:05:32;3.70;;;2.80;;
8466;SDS011;4270;48.148;11.648;2023-07-31T04:07:58;5.03;;;2.83;;
8466;SDS011;4270;48.148;11.648;2023-07-31T04:10:23;6.23;;;2.73;;
8466;SDS011;4270;48.148;11.648;2023-07-31T04:12:48;4.63;;;2.70;;
8466;SDS011;4270;48.148;11.648;2023-07-31T04:15:13;5.00;;;2.70;;
8466;SDS011;4270;48.148;11.648;2023-07-31T04:17:38;3.70;;;2.20;;
8466;SDS011;4270;48.148;11.648;2023-07-31T04:20:04;2.90;;;2.53;;
8466;SDS011;4270;48.148;11.648;2023-07-31T04:22:29;4.43;;;2.63;;
8466;SDS011;4270;48.148;11.648;2023-07-31T04:24:54;5.00;;;3.67;;
8466;SDS011;4270;48.148;11.648;2023-07-31T04:27:19;3.63;;;3.00;;
8466;SDS011;4270;48.148;11.648;2023-07-31T04:29:45;3.37;;;2.70;;
8466;SDS011;4270;48.148;11.648;2023-07-31T04:32:11;4.30;;;2.70;;
8466;SDS011;4270;48.148;11.648;2023-07-31T04:34:37;3.53;;;2.83;;
8466;SDS011;4270;48.148;11.648;2023-07-31T04:37:02;4.37;;;3.03;;
8466;SDS011;4270;48.148;11.648;2023-07-31T04:39:27;3.07;;;2.70;;
8466;SDS011;4270;48.148;11.648;2023-07-31T04:41:52;2.73;;;2.53;;
8466;SDS011;4270;48.148;11.648;2023-07-31T04:44:18;4.00;;;2.63;;
8466;SDS011;4270;48.148;11.648;2023-07-31T04:46:43;3.30;;;2.43;;
8466;SDS011;4270;48.148;11.648;2023-07-31T04:49:08;4.03;;;2.40;;
8466;SDS011;4270;48.148;11.648;2023-07-31T04:51:33;5.50;;;2.93;;
8466;SDS011;4270;48.148;11.648;2023-07-31T04:53:58;4.17;;;2.70;;
8466;SDS011;4270;48.148;11.648;2023-07-31T04:56:23;3.20;;;2.43;;
8466;SDS011;4270;48.148;11.648;2023-07-31T04:58:49;5.90;;;2.77;;
8466;SDS011;4270;48.148;11.648;2023-07-31T05:01:14;7.20;;;3.10;;
8466;SDS011;4270;48.148;11.648;2023-07-31T05:03:39;5.87;;;3.60;;
8466;SDS011;4270;48.148;11.648;2023-07-31T05:06:04;6.80;;;3.27;;
8466;SDS011;4270;48.148;11.648;2023-07-31T05:08:29;4.13;;;2.90;;
8466;SDS011;4270;48.148;11.648;2023-07-31T05:10:54;3.70;;;2.80;;
8466;SDS011;4270;48.148;11.648;2023-07-31T05:13:20;3.27;;;2.97;;
8466;SDS011;4270;48.148;11.648;2023-07-31T05:15:45;5.90;;;2.87;;
8466;SDS011;4270;48.148;11.648;2023-07-31T05:18:10;3.30;;;2.73;;
8466;SDS011;4270;48.148;11.648;2023-07-31T05:20:35;5.00;;;2.73;;
8466;SDS011;4270;48.148;11.648;2023-07-31T05:23:00;5.80;;;3.43;;
8466;SDS011;4270;48.148;11.648;2023-07-31T05:25:25;5.30;;;3.40;;
8466;SDS011;4270;48.148;11.648;2023-07-31T05:27:51;7.93;;;2.83;;
8466;SDS011;4270;48.148;11.648;2023-07-31T05:30:16;3.30;;;2.47;;
8466;SDS011;4270;48.148;11.648;2023-07-31T05:32:41;4.83;;;2.70;;
8466;SDS011;4270;48.148;11.648;2023-07-31T05:35:06;5.87;;;2.80;;
8466;SDS011;4270;48.148;11.648;2023-07-31T05:37:31;6.77;;;2.80;;
8466;SDS011;4270;48.148;11.648;2023-07-31T05:39:57;3.63;;;2.97;;
8466;SDS011;4270;48.148;11.648;2023-07-31T05:42:22;4.37;;;2.97;;
8466;SDS011;4270;48.148;11.648;2023-07-31T05:44:48;5.00;;;3.40;;
8466;SDS011;4270;48.148;11.648;2023-07-31T05:47:13;2.97;;;2.67;;
8466;SDS011;4270;48.148;11.648;2023-07-31T05:49:38;3.70;;;2.60;;
8466;SDS011;4270;48.148;11.648;2023-07-31T05:52:03;4.47;;;2.67;;
8466;SDS011;4270;48.148;11.648;2023-07-31T05:54:29;4.00;;;2.30;;
8466;SDS011;4270;48.148;11.648;2023-07-31T05:56:54;3.33;;;2.50;;
8466;SDS011;4270;48.148;11.648;2023-07-31T05:59:20;5.10;;;2.57;;
8466;SDS011;4270;48.148;11.648;2023-07-31T06:01:45;4.20;;;2.23;;
8466;SDS011;4270;48.148;11.648;2023-07-31T06:04:10;4.10;;;2.33;;
8466;SDS011;4270;48.148;11.648;2023-07-31T06:06:35;3.33;;;2.10;;
8466;SDS011;4270;48.148;11.648;2023-07-31T06:09:01;2.97;;;2.27;;
8466;SDS011;4270;48.148;11.648;2023-07-31T06:11:26;4.83;;;2.13;;
8466;SDS011;4270;48.148;11.648;2023-07-31T06:13:51;2.73;;;2.10;;
8466;SDS011;4270;48.148;11.648;2023-07-31T06:16:16;3.40;;;2.07;;
8466;SDS011;4270;48.148;11.648;2023-07-31T06:18:42;2.80;;;2.40;;
8466;SDS011;4270;48.148;11.648;2023-07-31T06:21:07;4.33;;;2.33;;
8466;SDS011;4270;48.148;11.648;2023-07-31T06:23:33;4.33;;;2.40;;
8466;SDS011;4270;48.148;11.648;2023-07-31T06:25:58;4.20;;;2.13;;
8466;SDS011;4270;48.148;11.648;2023-07-31T06:28:27;3.37;;;2.20;;
8466;SDS011;4270;48.148;11.648;2023-07-31T06:30:52;3.73;;;2.27;;
8466;SDS011;4270;48.148;11.648;2023-07-31T06:33:17;6.20;;;2.20;;
8466;SDS011;4270;48.148;11.648;2023-07-31T06:35:42;3.53;;;2.20;;
8466;SDS011;4270;48.148;11.648;2023-07-31T06:38:08;4.77;;;1.83;;
8466;SDS011;4270;48.148;11.648;2023-07-31T06:40:33;3.00;;;2.00;;
8466;SDS011;4270;48.148;11.648;2023-07-31T06:42:58;3.47;;;2.30;;
8466;SDS011;4270;48.148;11.648;2023-07-31T06:45:23;2.60;;;2.07;;
8466;SDS011;4270;48.148;11.648;2023-07-31T06:47:49;3.07;;;2.30;;
8466;SDS011;4270;48.148;11.648;2023-07-31T06:50:14;2.40;;;1.73;;
8466;SDS011;4270;48.148;11.648;2023-07-31T06:52:39;4.80;;;2.30;;
8466;SDS011;4270;48.148;11.648;2023-07-31T06:57:59;4.53;;;2.33;;
8466;SDS011;4270;48.148;11.648;2023-07-31T07:00:24;4.00;;;2.30;;
8466;SDS011;4270;48.148;11.648;2023-07-31T07:02:50;4.27;;;1.80;;
8466;SDS011;4270;48.148;11.648;2023-07-31T07:05:15;3.10;;;1.63;;
8466;SDS011;4270;48.148;11.648;2023-07-31T07:07:41;5.80;;;2.10;;
8466;SDS011;4270;48.148;11.648;2023-07-31T07:10:06;2.83;;;2.00;;
8466;SDS011;4270;48.148;11.648;2023-07-31T07:12:32;2.90;;;1.77;;
8466;SDS011;4270;48.148;11.648;2023-07-31T07:14:58;3.93;;;1.97;;
8466;SDS011;4270;48.148;11.648;2023-07-31T07:17:23;3.10;;;2.00;;
8466;SDS011;4270;48.148;11.648;2023-07-31T07:19:48;3.77;;;2.10;;
8466;SDS011;4270;48.148;11.648;2023-07-31T07:22:14;2.57;;;1.90;;
8466;SDS011;4270;48.148;11.648;2023-07-31T07:24:39;2.23;;;1.90;;
8466;SDS011;4270;48.148;11.648;2023-07-31T07:27:05;3.93;;;1.80;;
8466;SDS011;4270;48.148;11.648;2023-07-31T07:29:30;3.77;;;1.90;;
8466;SDS011;4270;48.148;11.648;2023-07-31T07:31:55;2.13;;;1.90;;
8466;SDS011;4270;48.148;11.648;2023-07-31T07:34:29;4.17;;;2.17;;
8466;SDS011;4270;48.148;11.648;2023-07-31T07:36:55;3.30;;;1.80;;
8466;SDS011;4270;48.148;11.648;2023-07-31T07:39:20;2.40;;;1.63;;
8466;SDS011;4270;48.148;11.648;2023-07-31T07:41:45;2.83;;;1.90;;
8466;SDS011;4270;48.148;11.648;2023-07-31T07:44:11;3.13;;;1.90;;
8466;SDS011;4270;48.148;11.648;2023-07-31T07:46:36;2.17;;;2.00;;
8466;SDS011;4270;48.148;11.648;2023-07-31T07:49:01;3.27;;;2.10;;
8466;SDS011;4270;48.148;11.648;2023-07-31T07:51:30;4.47;;;1.57;;
8466;SDS011;4270;48.148;11.648;2023-07-31T07:53:56;5.07;;;1.97;;
8466;SDS011;4270;48.148;11.648;2023-07-31T07:56:23;2.93;;;2.00;;
8466;SDS011;4270;48.148;11.648;2023-07-31T07:58:49;4.60;;;1.90;;
8466;SDS011;4270;48.148;11.648;2023-07-31T08:01:14;2.50;;;1.87;;
8466;SDS011;4270;48.148;11.648;2023-07-31T08:03:40;4.70;;;2.17;;
8466;SDS011;4270;48.148;11.648;2023-07-31T08:06:05;3.23;;;1.93;;
8466;SDS011;4270;48.148;11.648;2023-07-31T08:08:30;3.20;;;2.20;;
8466;SDS011;4270;48.148;11.648;2023-07-31T08:10:55;2.70;;;1.70;;
8466;SDS011;4270;48.148;11.648;2023-07-31T08:13:21;3.77;;;1.93;;
8466;SDS011;4270;48.148;11.648;2023-07-31T08:15:46;2.57;;;1.90;;
8466;SDS011;4270;48.148;11.648;2023-07-31T08:18:11;3.80;;;2.10;;
8466;SDS011;4270;48.148;11.648;2023-07-31T08:20:37;4.15;;;2.00;;
8466;SDS011;4270;48.148;11.648;2023-07-31T08:23:02;3.72;;;2.53;;
8466;SDS011;4270;48.148;11.648;2023-07-31T08:25:27;2.75;;;2.15;;
8466;SDS011;4270;48.148;11.648;2023-07-31T08:27:52;2.50;;;1.85;;
8466;SDS011;4270;48.148;11.648;2023-07-31T08:30:18;2.63;;;1.95;;
8466;SDS011;4270;48.148;11.648;2023-07-31T08:32:43;3.75;;;1.80;;
8466;SDS011;4270;48.148;11.648;2023-07-31T08:35:08;3.03;;;1.90;;
8466;SDS011;4270;48.148;11.648;2023-07-31T08:37:34;2.50;;;1.80;;
8466;SDS011;4270;48.148;11.648;2023-07-31T08:39:59;3.50;;;1.87;;
8466;SDS011;4270;48.148;11.648;2023-07-31T08:42:24;3.60;;;1.73;;
8466;SDS011;4270;48.148;11.648;2023-07-31T08:44:50;4.47;;;1.83;;
8466;SDS011;4270;48.148;11.648;2023-07-31T08:47:16;4.50;;;2.13;;
8466;SDS011;4270;48.148;11.648;2023-07-31T08:49:41;3.20;;;1.90;;
8466;SDS011;4270;48.148;11.648;2023-07-31T08:52:07;3.70;;;1.73;;
8466;SDS011;4270;48.148;11.648;2023-07-31T08:54:32;2.37;;;1.73;;
8466;SDS011;4270;48.148;11.648;2023-07-31T08:56:58;4.77;;;2.00;;
8466;SDS011;4270;48.148;11.648;2023-07-31T08:59:25;3.77;;;1.90;;
8466;SDS011;4270;48.148;11.648;2023-07-31T09:01:52;3.20;;;1.93;;
8466;SDS011;4270;48.148;11.648;2023-07-31T09:04:18;2.70;;;1.53;;
8466;SDS011;4270;48.148;11.648;2023-07-31T09:06:44;2.50;;;1.80;;
8466;SDS011;4270;48.148;11.648;2023-07-31T09:09:10;2.80;;;1.87;;
8466;SDS011;4270;48.148;11.648;2023-07-31T09:11:35;3.20;;;1.83;;
8466;SDS011;4270;48.148;11.648;2023-07-31T09:14:01;3.50;;;1.93;;
8466;SDS011;4270;48.148;11.648;2023-07-31T09:16:33;5.13;;;1.67;;
8466;SDS011;4270;48.148;11.648;2023-07-31T09:18:58;2.70;;;1.83;;
8466;SDS011;4270;48.148;11.648;2023-07-31T09:21:26;2.33;;;2.03;;
8466;SDS011;4270;48.148;11.648;2023-07-31T09:23:52;2.50;;;1.90;;
8466;SDS011;4270;48.148;11.648;2023-07-31T09:29:18;2.43;;;2.17;;
8466;SDS011;4270;48.148;11.648;2023-07-31T09:31:43;3.00;;;1.93;;
8466;SDS011;4270;48.148;11.648;2023-07-31T09:34:10;3.50;;;1.80;;
8466;SDS011;4270;48.148;11.648;2023-07-31T09:36:42;3.60;;;1.90;;
8466;SDS011;4270;48.148;11.648;2023-07-31T09:39:11;4.27;;;1.97;;
8466;SDS011;4270;48.148;11.648;2023-07-31T09:41:40;3.70;;;2.20;;
8466;SDS011;4270;48.148;11.648;2023-07-31T09:44:06;2.93;;;2.30;;
8466;SDS011;4270;48.148;11.648;2023-07-31T09:46:32;3.30;;;1.70;;
8466;SDS011;4270;48.148;11.648;2023-07-31T09:49:09;3.27;;;1.77;;
8466;SDS011;4270;48.148;11.648;2023-07-31T09:51:35;3.80;;;2.43;;
8466;SDS011;4270;48.148;11.648;2023-07-31T09:54:03;4.20;;;2.07;;
8466;SDS011;4270;48.148;11.648;2023-07-31T09:56:29;3.90;;;2.00;;
8466;SDS011;4270;48.148;11.648;2023-07-31T09:58:55;2.83;;;1.92;;
8466;SDS011;4270;48.148;11.648;2023-07-31T10:01:20;4.25;;;2.28;;
8466;SDS011;4270;48.148;11.648;2023-07-31T10:03:46;4.28;;;2.05;;
8466;SDS011;4270;48.148;11.648;2023-07-31T10:06:11;4.25;;;2.70;;
8466;SDS011;4270;48.148;11.648;2023-07-31T10:08:37;3.25;;;2.30;;
8466;SDS011;4270;48.148;11.648;2023-07-31T10:11:03;3.70;;;2.15;;
8466;SDS011;4270;48.148;11.648;2023-07-31T10:13:29;4.45;;;2.65;;
8466;SDS011;4270;48.148;11.648;2023-07-31T10:15:56;2.50;;;2.13;;
8466;SDS011;4270;48.148;11.648;2023-07-31T10:18:23;4.50;;;2.83;;
8466;SDS011;4270;48.148;11.648;2023-07-31T10:20:48;2.30;;;2.10;;
8466;SDS011;4270;48.148;11.648;2023-07-31T10:23:14;3.65;;;2.15;;
8466;SDS011;4270;48.148;11.648;2023-07-31T10:25:39;2.35;;;2.15;;
8466;SDS011;4270;48.148;11.648;2023-07-31T10:28:05;3.95;;;2.05;;
8466;SDS011;4270;48.148;11.648;2023-07-31T10:30:30;2.63;;;2.10;;
8466;SDS011;4270;48.148;11.648;2023-07-31T10:32:57;2.63;;;2.15;;
8466;SDS011;4270;48.148;11.648;2023-07-31T10:35:23;2.38;;;2.17;;
8466;SDS011;4270;48.148;11.648;2023-07-31T10:37:48;3.00;;;2.00;;
8466;SDS011;4270;48.148;11.648;2023-07-31T10:40:26;2.58;;;1.98;;
8466;SDS011;4270;48.148;11.648;2023-07-31T10:42:53;2.40;;;2.20;;
8466;SDS011;4270;48.148;11.648;2023-07-31T10:48:03;2.87;;;1.90;;
8466;SDS011;4270;48.148;11.648;2023-07-31T10:50:29;4.63;;;2.23;;
8466;SDS011;4270;48.148;11.648;2023-07-31T10:52:54;3.67;;;1.90;;
8466;SDS011;4270;48.148;11.648;2023-07-31T10:57:53;4.60;;;1.97;;
8466;SDS011;4270;48.148;11.648;2023-07-31T11:02:55;6.27;;;2.60;;
8466;SDS011;4270;48.148;11.648;2023-07-31T11:05:20;2.90;;;2.00;;
8466;SDS011;4270;48.148;11.648;2023-07-31T11:07:50;4.53;;;2.17;;
8466;SDS011;4270;48.148;11.648;2023-07-31T11:10:18;3.37;;;2.00;;
8466;SDS011;4270;48.148;11.648;2023-07-31T11:12:45;2.90;;;1.83;;
8466;SDS011;4270;48.148;11.648;2023-07-31T11:15:10;3.60;;;1.70;;
8466;SDS011;4270;48.148;11.648;2023-07-31T11:17:39;3.60;;;2.07;;
8466;SDS011;4270;48.148;11.648;2023-07-31T11:20:05;2.03;;;1.70;;
8466;SDS011;4270;48.148;11.648;2023-07-31T11:22:31;2.83;;;1.70;;
8466;SDS011;4270;48.148;11.648;2023-07-31T11:24:57;4.03;;;2.10;;
8466;SDS011;4270;48.148;11.648;2023-07-31T11:27:23;2.63;;;2.30;;
8466;SDS011;4270;48.148;11.648;2023-07-31T11:29:50;2.30;;;1.80;;
8466;SDS011;4270;48.148;11.648;2023-07-31T11:32:16;2.77;;;2.17;;
8466;SDS011;4270;48.148;11.648;2023-07-31T11:34:52;2.20;;;1.83;;
8466;SDS011;4270;48.148;11.648;2023-07-31T11:37:17;3.50;;;1.70;;
8466;SDS011;4270;48.148;11.648;2023-07-31T11:39:42;4.70;;;2.00;;
8466;SDS011;4270;48.148;11.648;2023-07-31T11:42:08;4.53;;;2.20;;
8466;SDS011;4270;48.148;11.648;2023-07-31T11:44:42;2.97;;;2.17;;
8466;SDS011;4270;48.148;11.648;2023-07-31T11:47:12;2.90;;;1.90;;
8466;SDS011;4270;48.148;11.648;2023-07-31T11:49:38;2.40;;;2.00;;
8466;SDS011;4270;48.148;11.648;2023-07-31T11:52:04;2.30;;;1.73;;
8466;SDS011;4270;48.148;11.648;2023-07-31T11:54:29;3.20;;;2.13;;
8466;SDS011;4270;48.148;11.648;2023-07-31T11:56:54;2.77;;;1.97;;
8466;SDS011;4270;48.148;11.648;2023-07-31T11:59:22;2.20;;;1.80;;
8466;SDS011;4270;48.148;11.648;2023-07-31T12:01:47;3.30;;;2.00;;
8466;SDS011;4270;48.148;11.648;2023-07-31T12:04:15;4.27;;;2.03;;
8466;SDS011;4270;48.148;11.648;2023-07-31T12:06:40;4.63;;;2.23;;
8466;SDS011;4270;48.148;11.648;2023-07-31T12:09:06;2.40;;;2.20;;
8466;SDS011;4270;48.148;11.648;2023-07-31T12:11:31;3.70;;;2.20;;
8466;SDS011;4270;48.148;11.648;2023-07-31T12:13:56;4.50;;;2.27;;
8466;SDS011;4270;48.148;11.648;2023-07-31T12:16:25;2.40;;;1.57;;
8466;SDS011;4270;48.148;11.648;2023-07-31T12:18:50;3.53;;;1.80;;
8466;SDS011;4270;48.148;11.648;2023-07-31T12:21:16;6.47;;;2.00;;
8466;SDS011;4270;48.148;11.648;2023-07-31T12:23:41;3.70;;;2.30;;
8466;SDS011;4270;48.148;11.648;2023-07-31T12:26:10;2.40;;;1.90;;
8466;SDS011;4270;48.148;11.648;2023-07-31T12:28:46;2.93;;;2.20;;
8466;SDS011;4270;48.148;11.648;2023-07-31T12:31:12;3.40;;;2.10;;
8466;SDS011;4270;48.148;11.648;2023-07-31T12:33:38;3.23;;;1.90;;
8466;SDS011;4270;48.148;11.648;2023-07-31T12:36:06;1.97;;;1.67;;
8466;SDS011;4270;48.148;11.648;2023-07-31T12:38:31;2.50;;;1.97;;
8466;SDS011;4270;48.148;11.648;2023-07-31T12:40:56;2.73;;;1.83;;
8466;SDS011;4270;48.148;11.648;2023-07-31T12:43:22;3.37;;;1.83;;
8466;SDS011;4270;48.148;11.648;2023-07-31T12:45:47;3.37;;;2.27;;
8466;SDS011;4270;48.148;11.648;2023-07-31T12:48:12;2.43;;;1.60;;
8466;SDS011;4270;48.148;11.648;2023-07-31T12:50:38;2.50;;;2.20;;
8466;SDS011;4270;48.148;11.648;2023-07-31T12:53:03;2.73;;;1.80;;
8466;SDS011;4270;48.148;11.648;2023-07-31T12:55:28;4.30;;;1.93;;
8466;SDS011;4270;48.148;11.648;2023-07-31T12:57:54;2.33;;;1.90;;
8466;SDS011;4270;48.148;11.648;2023-07-31T13:00:19;2.77;;;1.83;;
8466;SDS011;4270;48.148;11.648;2023-07-31T13:02:44;3.87;;;2.43;;
8466;SDS011;4270;48.148;11.648;2023-07-31T13:05:09;2.57;;;2.07;;
8466;SDS011;4270;48.148;11.648;2023-07-31T13:07:34;2.03;;;1.80;;
8466;SDS011;4270;48.148;11.648;2023-07-31T13:10:00;3.80;;;1.93;;
8466;SDS011;4270;48.148;11.648;2023-07-31T13:12:25;2.50;;;1.83;;
8466;SDS011;4270;48.148;11.648;2023-07-31T13:14:50;3.50;;;2.30;;
8466;SDS011;4270;48.148;11.648;2023-07-31T13:17:16;6.33;;;2.33;;
8466;SDS011;4270;48.148;11.648;2023-07-31T13:19:41;2.60;;;1.90;;
8466;SDS011;4270;48.148;11.648;2023-07-31T13:22:07;2.33;;;1.80;;
8466;SDS011;4270;48.148;11.648;2023-07-31T13:24:32;4.83;;;2.27;;
8466;SDS011;4270;48.148;11.648;2023-07-31T13:26:57;2.87;;;2.10;;
8466;SDS011;4270;48.148;11.648;2023-07-31T13:29:23;2.93;;;2.17;;
8466;SDS011;4270;48.148;11.648;2023-07-31T13:31:49;4.40;;;1.97;;
8466;SDS011;4270;48.148;11.648;2023-07-31T13:34:14;3.47;;;1.73;;
8466;SDS011;4270;48.148;11.648;2023-07-31T13:36:39;2.80;;;1.97;;
8466;SDS011;4270;48.148;11.648;2023-07-31T13:39:05;2.50;;;2.10;;
8466;SDS011;4270;48.148;11.648;2023-07-31T13:41:30;2.77;;;2.10;;
8466;SDS011;4270;48.148;11.648;2023-07-31T13:43:55;5.10;;;2.27;;
8466;SDS011;4270;48.148;11.648;2023-07-31T13:46:20;3.00;;;1.90;;
8466;SDS011;4270;48.148;11.648;2023-07-31T13:48:45;2.10;;;1.80;;
8466;SDS011;4270;48.148;11.648;2023-07-31T13:51:10;3.00;;;1.77;;
8466;SDS011;4270;48.148;11.648;2023-07-31T13:53:36;1.50;;;1.37;;
8466;SDS011;4270;48.148;11.648;2023-07-31T13:56:01;2.97;;;1.63;;
8466;SDS011;4270;48.148;11.648;2023-07-31T13:58:26;4.27;;;1.90;;
8466;SDS011;4270;48.148;11.648;2023-07-31T14:00:52;5.03;;;2.23;;
8466;SDS011;4270;48.148;11.648;2023-07-31T14:03:17;4.07;;;2.00;;
8466;SDS011;4270;48.148;11.648;2023-07-31T14:05:42;3.23;;;1.90;;
8466;SDS011;4270;48.148;11.648;2023-07-31T14:08:07;2.00;;;1.80;;
8466;SDS011;4270;48.148;11.648;2023-07-31T14:10:32;3.43;;;2.10;;
8466;SDS011;4270;48.148;11.648;2023-07-31T14:12:57;3.10;;;1.90;;
8466;SDS011;4270;48.148;11.648;2023-07-31T14:15:23;6.23;;;2.60;;
8466;SDS011;4270;48.148;11.648;2023-07-31T14:17:48;3.00;;;2.10;;
8466;SDS011;4270;48.148;11.648;2023-07-31T14:20:13;5.63;;;2.10;;
8466;SDS011;4270;48.148;11.648;2023-07-31T14:22:38;4.23;;;1.90;;
8466;SDS011;4270;48.148;11.648;2023-07-31T14:25:04;6.03;;;2.60;;
8466;SDS011;4270;48.148;11.648;2023-07-31T14:27:29;6.10;;;2.27;;
8466;SDS011;4270;48.148;11.648;2023-07-31T14:29:54;2.83;;;1.60;;
8466;SDS011;4270;48.148;11.648;2023-07-31T14:32:20;1.70;;;1.40;;
8466;SDS011;4270;48.148;11.648;2023-07-31T14:34:46;2.10;;;1.60;;
8466;SDS011;4270;48.148;11.648;2023-07-31T14:37:11;1.87;;;1.63;;
8466;SDS011;4270;48.148;11.648;2023-07-31T14:39:36;3.27;;;2.00;;
8466;SDS011;4270;48.148;11.648;2023-07-31T14:42:01;2.63;;;2.00;;
8466;SDS011;4270;48.148;11.648;2023-07-31T14:44:27;3.93;;;2.10;;
8466;SDS011;4270;48.148;11.648;2023-07-31T14:46:52;3.93;;;2.47;;
8466;SDS011;4270;48.148;11.648;2023-07-31T14:49:17;2.73;;;1.93;;
8466;SDS011;4270;48.148;11.648;2023-07-31T14:51:42;3.60;;;2.40;;
8466;SDS011;4270;48.148;11.648;2023-07-31T14:54:07;3.20;;;2.27;;
8466;SDS011;4270;48.148;11.648;2023-07-31T14:56:33;2.53;;;2.23;;
8466;SDS011;4270;48.148;11.648;2023-07-31T14:58:58;2.80;;;2.00;;
8466;SDS011;4270;48.148;11.648;2023-07-31T15:01:24;2.97;;;1.97;;
8466;SDS011;4270;48.148;11.648;2023-07-31T15:03:49;2.70;;;1.73;;
8466;SDS011;4270;48.148;11.648;2023-07-31T15:06:14;5.20;;;2.37;;
8466;SDS011;4270;48.148;11.648;2023-07-31T15:08:39;4.73;;;2.53;;